sensor_id;sensor_type;location;lat;lon;timestamp;P1;durP1;ratioP1;P2;durP2;ratioP2
8252;SDS011;61313;48.396;10.008;2022-09-03T00:01:19;7.33;;;3.07;;
8252;SDS011;61313;48.396;10.008;2022-09-03T00:04:04;3.70;;;3.40;;
8252;SDS011;61313;48.396;10.008;2022-09-03T00:06:42;4.03;;;2.67;;
8252;SDS011;61313;48.396;10.008;2022-09-03T00:09:16;3.97;;;3.23;;
8252;SDS011;61313;48.396;10.008;2022-09-03T00:15:06;4.23;;;2.90;;
8252;SDS011;61313;48.396;10.008;2022-09-03T00:17:54;3.97;;;3.30;;
8252;SDS011;61313;48.396;10.008;2022-09-03T00:20:46;7.10;;;5.40;;
8252;SDS011;61313;48.396;10.008;2022-09-03T00:23:17;5.80;;;2.83;;
8252;SDS011;61313;48.396;10.008;2022-09-03T00:28:24;3.97;;;2.80;;
8252;SDS011;61313;48.396;10.008;2022-09-03T00:31:05;3.70;;;3.40;;
8252;SDS011;61313;48.396;10.008;2022-09-03T00:33:36;3.90;;;3.07;;
8252;SDS011;61313;48.396;10.008;2022-09-03T00:36:06;3.80;;;3.27;;
8252;SDS011;61313;48.396;10.008;2022-09-03T00:38:53;3.97;;;3.03;;
8252;SDS011;61313;48.396;10.008;2022-09-03T00:41:32;3.60;;;2.77;;
8252;SDS011;61313;48.396;10.008;2022-09-03T00:47:55;4.17;;;3.00;;
8252;SDS011;61313;48.396;10.008;2022-09-03T00:56:16;3.80;;;3.27;;
8252;SDS011;61313;48.396;10.008;2022-09-03T01:09:43;4.67;;;3.40;;
8252;SDS011;61313;48.396;10.008;2022-09-03T01:26:15;4.80;;;3.30;;
8252;SDS011;61313;48.396;10.008;2022-09-03T01:36:59;3.97;;;3.27;;
8252;SDS011;61313;48.396;10.008;2022-09-03T01:51:02;4.10;;;3.07;;
8252;SDS011;61313;48.396;10.008;2022-09-03T01:59:19;4.50;;;3.37;;
8252;SDS011;61313;48.396;10.008;2022-09-03T02:02:01;3.30;;;3.00;;
8252;SDS011;61313;48.396;10.008;2022-09-03T02:04:54;5.30;;;3.37;;
8252;SDS011;61313;48.396;10.008;2022-09-03T02:07:30;4.73;;;3.20;;
8252;SDS011;61313;48.396;10.008;2022-09-03T02:09:59;3.73;;;3.30;;
8252;SDS011;61313;48.396;10.008;2022-09-03T02:12:27;3.33;;;3.03;;
8252;SDS011;61313;48.396;10.008;2022-09-03T02:14:57;3.50;;;2.73;;
8252;SDS011;61313;48.396;10.008;2022-09-03T02:17:24;3.53;;;2.67;;
8252;SDS011;61313;48.396;10.008;2022-09-03T02:19:50;21.17;;;5.53;;
8252;SDS011;61313;48.396;10.008;2022-09-03T02:22:15;6.17;;;3.30;;
8252;SDS011;61313;48.396;10.008;2022-09-03T02:24:41;4.37;;;3.93;;
8252;SDS011;61313;48.396;10.008;2022-09-03T02:27:08;4.57;;;3.40;;
8252;SDS011;61313;48.396;10.008;2022-09-03T02:29:33;4.27;;;3.50;;
8252;SDS011;61313;48.396;10.008;2022-09-03T02:31:59;3.73;;;3.40;;
8252;SDS011;61313;48.396;10.008;2022-09-03T02:34:25;4.93;;;3.10;;
8252;SDS011;61313;48.396;10.008;2022-09-03T02:36:51;5.80;;;3.93;;
8252;SDS011;61313;48.396;10.008;2022-09-03T02:39:17;3.70;;;3.37;;
8252;SDS011;61313;48.396;10.008;2022-09-03T02:41:43;6.60;;;3.50;;
8252;SDS011;61313;48.396;10.008;2022-09-03T02:44:17;5.13;;;3.20;;
8252;SDS011;61313;48.396;10.008;2022-09-03T02:47:05;4.10;;;3.70;;
8252;SDS011;61313;48.396;10.008;2022-09-03T02:49:32;4.23;;;3.50;;
8252;SDS011;61313;48.396;10.008;2022-09-03T02:52:00;3.47;;;3.17;;
8252;SDS011;61313;48.396;10.008;2022-09-03T02:54:33;5.00;;;3.40;;
8252;SDS011;61313;48.396;10.008;2022-09-03T02:57:03;3.10;;;2.80;;
8252;SDS011;61313;48.396;10.008;2022-09-03T02:59:33;6.87;;;3.40;;
8252;SDS011;61313;48.396;10.008;2022-09-03T03:01:59;3.67;;;3.30;;
8252;SDS011;61313;48.396;10.008;2022-09-03T03:04:25;3.40;;;3.10;;
8252;SDS011;61313;48.396;10.008;2022-09-03T03:06:51;17.60;;;4.60;;
8252;SDS011;61313;48.396;10.008;2022-09-03T03:09:17;3.60;;;3.30;;
8252;SDS011;61313;48.396;10.008;2022-09-03T03:11:43;4.50;;;3.40;;
8252;SDS011;61313;48.396;10.008;2022-09-03T03:14:09;4.17;;;3.20;;
8252;SDS011;61313;48.396;10.008;2022-09-03T03:16:35;4.50;;;3.60;;
8252;SDS011;61313;48.396;10.008;2022-09-03T03:19:01;3.30;;;3.03;;
8252;SDS011;61313;48.396;10.008;2022-09-03T03:21:27;4.67;;;3.33;;
8252;SDS011;61313;48.396;10.008;2022-09-03T03:23:53;6.93;;;3.60;;
8252;SDS011;61313;48.396;10.008;2022-09-03T03:26:19;4.60;;;3.20;;
8252;SDS011;61313;48.396;10.008;2022-09-03T03:28:47;3.60;;;3.30;;
8252;SDS011;61313;48.396;10.008;2022-09-03T03:31:14;3.43;;;3.13;;
8252;SDS011;61313;48.396;10.008;2022-09-03T03:33:49;4.57;;;4.17;;
8252;SDS011;61313;48.396;10.008;2022-09-03T03:36:19;5.30;;;3.40;;
8252;SDS011;61313;48.396;10.008;2022-09-03T03:38:46;3.63;;;3.33;;
8252;SDS011;61313;48.396;10.008;2022-09-03T03:41:16;4.00;;;3.50;;
8252;SDS011;61313;48.396;10.008;2022-09-03T03:43:45;4.33;;;3.63;;
8252;SDS011;61313;48.396;10.008;2022-09-03T03:46:11;5.80;;;3.40;;
8252;SDS011;61313;48.396;10.008;2022-09-03T03:48:39;5.77;;;3.70;;
8252;SDS011;61313;48.396;10.008;2022-09-03T03:51:06;5.70;;;3.73;;
8252;SDS011;61313;48.396;10.008;2022-09-03T03:53:33;3.70;;;3.40;;
8252;SDS011;61313;48.396;10.008;2022-09-03T03:56:02;3.63;;;3.30;;
8252;SDS011;61313;48.396;10.008;2022-09-03T03:58:30;4.70;;;3.47;;
8252;SDS011;61313;48.396;10.008;2022-09-03T04:01:07;3.70;;;3.30;;
8252;SDS011;61313;48.396;10.008;2022-09-03T04:03:40;4.10;;;3.57;;
8252;SDS011;61313;48.396;10.008;2022-09-03T04:06:07;3.33;;;3.03;;
8252;SDS011;61313;48.396;10.008;2022-09-03T04:08:38;3.97;;;3.57;;
8252;SDS011;61313;48.396;10.008;2022-09-03T04:11:06;4.07;;;3.67;;
8252;SDS011;61313;48.396;10.008;2022-09-03T04:13:37;4.37;;;3.70;;
8252;SDS011;61313;48.396;10.008;2022-09-03T04:16:06;5.03;;;3.43;;
8252;SDS011;61313;48.396;10.008;2022-09-03T04:18:34;4.50;;;3.83;;
8252;SDS011;61313;48.396;10.008;2022-09-03T04:21:04;7.80;;;3.67;;
8252;SDS011;61313;48.396;10.008;2022-09-03T04:23:39;5.40;;;4.00;;
8252;SDS011;61313;48.396;10.008;2022-09-03T04:26:07;5.13;;;2.97;;
8252;SDS011;61313;48.396;10.008;2022-09-03T04:28:34;16.47;;;4.50;;
8252;SDS011;61313;48.396;10.008;2022-09-03T04:31:01;5.50;;;4.10;;
8252;SDS011;61313;48.396;10.008;2022-09-03T04:33:32;7.63;;;3.67;;
8252;SDS011;61313;48.396;10.008;2022-09-03T04:36:05;4.67;;;3.77;;
8252;SDS011;61313;48.396;10.008;2022-09-03T04:38:32;5.03;;;3.57;;
8252;SDS011;61313;48.396;10.008;2022-09-03T04:40:59;6.53;;;3.97;;
8252;SDS011;61313;48.396;10.008;2022-09-03T04:43:25;6.40;;;4.23;;
8252;SDS011;61313;48.396;10.008;2022-09-03T04:45:54;7.83;;;4.20;;
8252;SDS011;61313;48.396;10.008;2022-09-03T04:48:22;7.50;;;3.50;;
8252;SDS011;61313;48.396;10.008;2022-09-03T04:50:47;8.27;;;4.23;;
8252;SDS011;61313;48.396;10.008;2022-09-03T04:53:13;7.30;;;4.07;;
8252;SDS011;61313;48.396;10.008;2022-09-03T04:55:39;4.10;;;3.70;;
8252;SDS011;61313;48.396;10.008;2022-09-03T04:58:04;15.73;;;4.93;;
8252;SDS011;61313;48.396;10.008;2022-09-03T05:00:36;5.63;;;3.77;;
8252;SDS011;61313;48.396;10.008;2022-09-03T05:03:02;4.20;;;3.80;;
8252;SDS011;61313;48.396;10.008;2022-09-03T05:05:29;11.03;;;5.00;;
8252;SDS011;61313;48.396;10.008;2022-09-03T05:07:59;4.50;;;3.93;;
8252;SDS011;61313;48.396;10.008;2022-09-03T05:10:28;3.90;;;3.60;;
8252;SDS011;61313;48.396;10.008;2022-09-03T05:13:02;10.03;;;5.00;;
8252;SDS011;61313;48.396;10.008;2022-09-03T05:15:29;6.23;;;4.60;;
8252;SDS011;61313;48.396;10.008;2022-09-03T05:18:00;4.23;;;3.87;;
8252;SDS011;61313;48.396;10.008;2022-09-03T05:20:27;5.23;;;4.73;;
8252;SDS011;61313;48.396;10.008;2022-09-03T05:22:54;4.57;;;4.17;;
8252;SDS011;61313;48.396;10.008;2022-09-03T05:25:29;8.10;;;5.27;;
8252;SDS011;61313;48.396;10.008;2022-09-03T05:27:56;5.90;;;4.87;;
8252;SDS011;61313;48.396;10.008;2022-09-03T05:30:22;14.47;;;5.20;;
8252;SDS011;61313;48.396;10.008;2022-09-03T05:32:49;6.90;;;4.47;;
8252;SDS011;61313;48.396;10.008;2022-09-03T05:35:16;7.70;;;4.43;;
8252;SDS011;61313;48.396;10.008;2022-09-03T05:37:42;7.60;;;5.10;;
8252;SDS011;61313;48.396;10.008;2022-09-03T05:40:08;4.37;;;3.97;;
8252;SDS011;61313;48.396;10.008;2022-09-03T05:42:37;6.37;;;4.23;;
8252;SDS011;61313;48.396;10.008;2022-09-03T05:45:07;4.80;;;4.30;;
8252;SDS011;61313;48.396;10.008;2022-09-03T05:47:37;12.20;;;5.43;;
8252;SDS011;61313;48.396;10.008;2022-09-03T05:50:04;8.60;;;4.73;;
8252;SDS011;61313;48.396;10.008;2022-09-03T05:52:35;32.27;;;9.07;;
8252;SDS011;61313;48.396;10.008;2022-09-03T05:55:01;35.97;;;8.70;;
8252;SDS011;61313;48.396;10.008;2022-09-03T05:57:28;14.37;;;5.50;;
8252;SDS011;61313;48.396;10.008;2022-09-03T05:59:54;30.33;;;7.60;;
8252;SDS011;61313;48.396;10.008;2022-09-03T06:02:20;25.37;;;6.07;;
8252;SDS011;61313;48.396;10.008;2022-09-03T06:04:46;19.70;;;5.80;;
8252;SDS011;61313;48.396;10.008;2022-09-03T06:07:13;12.83;;;5.90;;
8252;SDS011;61313;48.396;10.008;2022-09-03T06:09:39;17.50;;;6.80;;
8252;SDS011;61313;48.396;10.008;2022-09-03T06:12:05;17.30;;;6.17;;
8252;SDS011;61313;48.396;10.008;2022-09-03T06:14:31;25.97;;;6.77;;
8252;SDS011;61313;48.396;10.008;2022-09-03T06:16:57;25.80;;;7.70;;
8252;SDS011;61313;48.396;10.008;2022-09-03T06:19:22;18.53;;;6.07;;
8252;SDS011;61313;48.396;10.008;2022-09-03T06:21:48;44.83;;;8.80;;
8252;SDS011;61313;48.396;10.008;2022-09-03T06:24:17;71.70;;;13.40;;
8252;SDS011;61313;48.396;10.008;2022-09-03T06:26:45;19.03;;;6.20;;
8252;SDS011;61313;48.396;10.008;2022-09-03T06:29:11;20.83;;;7.40;;
8252;SDS011;61313;48.396;10.008;2022-09-03T06:31:37;10.67;;;5.47;;
8252;SDS011;61313;48.396;10.008;2022-09-03T06:34:03;13.47;;;5.30;;
8252;SDS011;61313;48.396;10.008;2022-09-03T06:36:30;7.53;;;5.13;;
8252;SDS011;61313;48.396;10.008;2022-09-03T06:38:56;16.60;;;6.20;;
8252;SDS011;61313;48.396;10.008;2022-09-03T06:41:24;9.30;;;5.90;;
8252;SDS011;61313;48.396;10.008;2022-09-03T06:43:52;7.87;;;5.50;;
8252;SDS011;61313;48.396;10.008;2022-09-03T06:46:20;7.37;;;5.63;;
8252;SDS011;61313;48.396;10.008;2022-09-03T06:48:47;5.70;;;5.20;;
8252;SDS011;61313;48.396;10.008;2022-09-03T06:51:24;9.37;;;5.30;;
8252;SDS011;61313;48.396;10.008;2022-09-03T06:54:01;17.00;;;8.00;;
8252;SDS011;61313;48.396;10.008;2022-09-03T06:56:30;37.77;;;7.53;;
8252;SDS011;61313;48.396;10.008;2022-09-03T06:58:57;39.27;;;9.03;;
8252;SDS011;61313;48.396;10.008;2022-09-03T07:01:25;6.40;;;5.80;;
8252;SDS011;61313;48.396;10.008;2022-09-03T07:03:55;8.87;;;5.87;;
8252;SDS011;61313;48.396;10.008;2022-09-03T07:06:23;21.63;;;7.20;;
8252;SDS011;61313;48.396;10.008;2022-09-03T07:08:51;9.67;;;6.33;;
8252;SDS011;61313;48.396;10.008;2022-09-03T07:11:19;6.50;;;5.97;;
8252;SDS011;61313;48.396;10.008;2022-09-03T07:13:50;21.60;;;7.97;;
8252;SDS011;61313;48.396;10.008;2022-09-03T07:16:21;16.50;;;7.03;;
8252;SDS011;61313;48.396;10.008;2022-09-03T07:18:48;33.43;;;8.37;;
8252;SDS011;61313;48.396;10.008;2022-09-03T07:21:23;30.27;;;7.53;;
8252;SDS011;61313;48.396;10.008;2022-09-03T07:23:51;46.80;;;11.10;;
8252;SDS011;61313;48.396;10.008;2022-09-03T07:26:21;32.17;;;8.00;;
8252;SDS011;61313;48.396;10.008;2022-09-03T07:28:52;12.80;;;7.33;;
8252;SDS011;61313;48.396;10.008;2022-09-03T07:31:22;11.40;;;7.57;;
8252;SDS011;61313;48.396;10.008;2022-09-03T07:33:52;9.57;;;6.87;;
8252;SDS011;61313;48.396;10.008;2022-09-03T07:36:21;29.50;;;8.00;;
8252;SDS011;61313;48.396;10.008;2022-09-03T07:38:48;32.33;;;9.00;;
8252;SDS011;61313;48.396;10.008;2022-09-03T07:41:14;9.90;;;7.23;;
8252;SDS011;61313;48.396;10.008;2022-09-03T07:43:41;7.70;;;7.00;;
8252;SDS011;61313;48.396;10.008;2022-09-03T07:46:10;11.93;;;7.73;;
8252;SDS011;61313;48.396;10.008;2022-09-03T07:48:39;48.30;;;10.87;;
8252;SDS011;61313;48.396;10.008;2022-09-03T07:51:06;18.27;;;7.70;;
8252;SDS011;61313;48.396;10.008;2022-09-03T07:53:32;13.80;;;9.17;;
8252;SDS011;61313;48.396;10.008;2022-09-03T07:56:02;8.30;;;7.20;;
8252;SDS011;61313;48.396;10.008;2022-09-03T07:58:34;22.63;;;8.20;;
8252;SDS011;61313;48.396;10.008;2022-09-03T08:01:05;14.60;;;8.70;;
8252;SDS011;61313;48.396;10.008;2022-09-03T08:03:35;16.73;;;7.90;;
8252;SDS011;61313;48.396;10.008;2022-09-03T08:06:02;15.77;;;8.43;;
8252;SDS011;61313;48.396;10.008;2022-09-03T08:08:30;9.03;;;8.13;;
8252;SDS011;61313;48.396;10.008;2022-09-03T08:11:07;14.30;;;7.23;;
8252;SDS011;61313;48.396;10.008;2022-09-03T08:13:41;7.03;;;6.43;;
8252;SDS011;61313;48.396;10.008;2022-09-03T08:16:09;34.20;;;10.00;;
8252;SDS011;61313;48.396;10.008;2022-09-03T08:18:36;10.20;;;8.37;;
8252;SDS011;61313;48.396;10.008;2022-09-03T08:21:06;13.17;;;8.50;;
8252;SDS011;61313;48.396;10.008;2022-09-03T08:23:38;10.83;;;7.93;;
8252;SDS011;61313;48.396;10.008;2022-09-03T08:26:04;11.90;;;7.80;;
8252;SDS011;61313;48.396;10.008;2022-09-03T08:28:41;25.87;;;9.60;;
8252;SDS011;61313;48.396;10.008;2022-09-03T08:31:17;20.00;;;10.07;;
8252;SDS011;61313;48.396;10.008;2022-09-03T08:33:46;20.20;;;9.60;;
8252;SDS011;61313;48.396;10.008;2022-09-03T08:36:18;7.63;;;6.83;;
8252;SDS011;61313;48.396;10.008;2022-09-03T08:38:45;16.60;;;8.60;;
8252;SDS011;61313;48.396;10.008;2022-09-03T08:41:12;14.80;;;7.67;;
8252;SDS011;61313;48.396;10.008;2022-09-03T08:46:43;70.60;;;14.80;;
8252;SDS011;61313;48.396;10.008;2022-09-03T08:51:53;14.40;;;8.13;;
8252;SDS011;61313;48.396;10.008;2022-09-03T08:54:22;20.80;;;8.20;;
8252;SDS011;61313;48.396;10.008;2022-09-03T08:56:51;30.17;;;8.47;;
8252;SDS011;61313;48.396;10.008;2022-09-03T08:59:19;14.20;;;8.73;;
8252;SDS011;61313;48.396;10.008;2022-09-03T09:02:04;31.80;;;8.60;;
8252;SDS011;61313;48.396;10.008;2022-09-03T09:05:02;132.27;;;19.63;;
8252;SDS011;61313;48.396;10.008;2022-09-03T09:11:05;32.93;;;10.53;;
8252;SDS011;61313;48.396;10.008;2022-09-03T09:13:41;73.97;;;11.40;;
8252;SDS011;61313;48.396;10.008;2022-09-03T09:21:56;57.13;;;12.63;;
8252;SDS011;61313;48.396;10.008;2022-09-03T09:24:27;19.50;;;8.10;;
8252;SDS011;61313;48.396;10.008;2022-09-03T09:27:02;21.80;;;8.23;;
8252;SDS011;61313;48.396;10.008;2022-09-03T09:29:31;13.97;;;6.40;;
8252;SDS011;61313;48.396;10.008;2022-09-03T09:31:57;33.27;;;7.87;;
8252;SDS011;61313;48.396;10.008;2022-09-03T09:34:23;25.80;;;7.40;;
8252;SDS011;61313;48.396;10.008;2022-09-03T09:36:50;14.10;;;6.77;;
8252;SDS011;61313;48.396;10.008;2022-09-03T09:39:17;15.80;;;6.43;;
8252;SDS011;61313;48.396;10.008;2022-09-03T09:42:05;14.00;;;6.10;;
8252;SDS011;61313;48.396;10.008;2022-09-03T09:44:33;10.83;;;5.37;;
8252;SDS011;61313;48.396;10.008;2022-09-03T09:47:12;10.10;;;5.90;;
8252;SDS011;61313;48.396;10.008;2022-09-03T09:49:53;11.77;;;5.40;;
8252;SDS011;61313;48.396;10.008;2022-09-03T09:52:21;6.03;;;5.43;;
8252;SDS011;61313;48.396;10.008;2022-09-03T09:54:50;9.23;;;5.37;;
8252;SDS011;61313;48.396;10.008;2022-09-03T09:57:22;6.00;;;5.40;;
8252;SDS011;61313;48.396;10.008;2022-09-03T09:59:49;12.03;;;6.83;;
8252;SDS011;61313;48.396;10.008;2022-09-03T10:02:27;11.43;;;7.00;;
8252;SDS011;61313;48.396;10.008;2022-09-03T10:04:59;15.70;;;6.30;;
8252;SDS011;61313;48.396;10.008;2022-09-03T10:07:36;23.10;;;8.53;;
8252;SDS011;61313;48.396;10.008;2022-09-03T10:10:06;19.97;;;7.80;;
8252;SDS011;61313;48.396;10.008;2022-09-03T10:12:43;13.10;;;6.23;;
8252;SDS011;61313;48.396;10.008;2022-09-03T10:17:44;6.87;;;5.47;;
8252;SDS011;61313;48.396;10.008;2022-09-03T10:22:56;9.97;;;4.50;;
8252;SDS011;61313;48.396;10.008;2022-09-03T10:28:24;10.87;;;6.33;;
8252;SDS011;61313;48.396;10.008;2022-09-03T10:45:17;14.60;;;5.50;;
8252;SDS011;61313;48.396;10.008;2022-09-03T10:50:26;48.37;;;8.30;;
8252;SDS011;61313;48.396;10.008;2022-09-03T10:56:04;45.77;;;7.93;;
8252;SDS011;61313;48.396;10.008;2022-09-03T11:01:54;37.50;;;7.30;;
8252;SDS011;61313;48.396;10.008;2022-09-03T11:04:31;19.57;;;6.10;;
8252;SDS011;61313;48.396;10.008;2022-09-03T11:07:04;14.80;;;4.03;;
8252;SDS011;61313;48.396;10.008;2022-09-03T11:12:11;14.50;;;3.53;;
8252;SDS011;61313;48.396;10.008;2022-09-03T11:17:57;13.30;;;3.23;;
8252;SDS011;61313;48.396;10.008;2022-09-03T11:20:26;5.13;;;2.90;;
8252;SDS011;61313;48.396;10.008;2022-09-03T11:22:58;9.73;;;3.20;;
8252;SDS011;61313;48.396;10.008;2022-09-03T11:25:31;8.23;;;3.27;;
8252;SDS011;61313;48.396;10.008;2022-09-03T11:28:12;13.00;;;3.70;;
8252;SDS011;61313;48.396;10.008;2022-09-03T11:33:22;9.53;;;3.03;;
8252;SDS011;61313;48.396;10.008;2022-09-03T11:35:59;13.17;;;3.57;;
8252;SDS011;61313;48.396;10.008;2022-09-03T11:38:29;2.80;;;2.60;;
8252;SDS011;61313;48.396;10.008;2022-09-03T11:46:08;14.40;;;4.50;;
8252;SDS011;61313;48.396;10.008;2022-09-03T11:49:10;17.97;;;3.80;;
8252;SDS011;61313;48.396;10.008;2022-09-03T11:51:37;15.37;;;3.70;;
8252;SDS011;61313;48.396;10.008;2022-09-03T11:56:37;11.00;;;3.87;;
8252;SDS011;61313;48.396;10.008;2022-09-03T12:18:49;11.03;;;3.73;;
8252;SDS011;61313;48.396;10.008;2022-09-03T12:21:19;6.60;;;3.33;;
8252;SDS011;61313;48.396;10.008;2022-09-03T12:23:46;17.47;;;3.60;;
8252;SDS011;61313;48.396;10.008;2022-09-03T12:26:17;10.80;;;2.60;;
8252;SDS011;61313;48.396;10.008;2022-09-03T12:28:49;36.90;;;4.30;;
8252;SDS011;61313;48.396;10.008;2022-09-03T12:31:21;17.60;;;2.90;;
8252;SDS011;61313;48.396;10.008;2022-09-03T12:33:52;24.93;;;4.53;;
8252;SDS011;61313;48.396;10.008;2022-09-03T12:36:24;31.73;;;6.03;;
8252;SDS011;61313;48.396;10.008;2022-09-03T12:38:51;5.83;;;2.80;;
8252;SDS011;61313;48.396;10.008;2022-09-03T12:41:27;14.20;;;2.80;;
8252;SDS011;61313;48.396;10.008;2022-09-03T12:43:56;18.23;;;4.20;;
8252;SDS011;61313;48.396;10.008;2022-09-03T12:46:27;8.73;;;4.20;;
8252;SDS011;61313;48.396;10.008;2022-09-03T12:48:58;13.93;;;3.33;;
8252;SDS011;61313;48.396;10.008;2022-09-03T12:51:36;10.07;;;3.30;;
8252;SDS011;61313;48.396;10.008;2022-09-03T12:54:08;17.33;;;4.40;;
8252;SDS011;61313;48.396;10.008;2022-09-03T12:56:43;7.50;;;2.30;;
8252;SDS011;61313;48.396;10.008;2022-09-03T12:59:16;24.37;;;4.20;;
8252;SDS011;61313;48.396;10.008;2022-09-03T13:01:45;11.33;;;3.73;;
8252;SDS011;61313;48.396;10.008;2022-09-03T13:04:21;19.23;;;3.90;;
8252;SDS011;61313;48.396;10.008;2022-09-03T13:07:00;3.53;;;1.93;;
8252;SDS011;61313;48.396;10.008;2022-09-03T13:09:35;5.57;;;2.30;;
8252;SDS011;61313;48.396;10.008;2022-09-03T13:12:03;6.73;;;2.10;;
8252;SDS011;61313;48.396;10.008;2022-09-03T13:14:40;12.93;;;1.97;;
8252;SDS011;61313;48.396;10.008;2022-09-03T13:17:15;5.13;;;2.77;;
8252;SDS011;61313;48.396;10.008;2022-09-03T13:25:55;14.87;;;4.47;;
8252;SDS011;61313;48.396;10.008;2022-09-03T13:31:32;6.00;;;2.40;;
8252;SDS011;61313;48.396;10.008;2022-09-03T13:34:22;9.20;;;1.87;;
8252;SDS011;61313;48.396;10.008;2022-09-03T13:39:57;8.60;;;2.63;;
8252;SDS011;61313;48.396;10.008;2022-09-03T13:42:38;8.83;;;1.90;;
8252;SDS011;61313;48.396;10.008;2022-09-03T13:47:42;10.00;;;2.27;;
8252;SDS011;61313;48.396;10.008;2022-09-03T13:50:36;5.77;;;2.27;;
8252;SDS011;61313;48.396;10.008;2022-09-03T13:53:25;7.60;;;1.50;;
8252;SDS011;61313;48.396;10.008;2022-09-03T13:56:18;8.80;;;2.03;;
8252;SDS011;61313;48.396;10.008;2022-09-03T13:58:47;10.40;;;2.50;;
8252;SDS011;61313;48.396;10.008;2022-09-03T14:04:09;9.40;;;2.60;;
8252;SDS011;61313;48.396;10.008;2022-09-03T14:06:43;10.07;;;2.03;;
8252;SDS011;61313;48.396;10.008;2022-09-03T14:20:03;29.03;;;3.43;;
8252;SDS011;61313;48.396;10.008;2022-09-03T14:25:29;20.30;;;4.10;;
8252;SDS011;61313;48.396;10.008;2022-09-03T14:28:12;21.83;;;3.10;;
8252;SDS011;61313;48.396;10.008;2022-09-03T14:30:57;26.60;;;3.80;;
8252;SDS011;61313;48.396;10.008;2022-09-03T14:33:45;64.20;;;7.30;;
8252;SDS011;61313;48.396;10.008;2022-09-03T14:39:58;8.20;;;2.10;;
8252;SDS011;61313;48.396;10.008;2022-09-03T14:42:51;5.87;;;2.30;;
8252;SDS011;61313;48.396;10.008;2022-09-03T14:48:47;2.40;;;1.73;;
8252;SDS011;61313;48.396;10.008;2022-09-03T15:08:45;130.43;;;15.10;;
8252;SDS011;61313;48.396;10.008;2022-09-03T15:11:21;61.20;;;9.40;;
8252;SDS011;61313;48.396;10.008;2022-09-03T15:13:51;11.87;;;3.27;;
8252;SDS011;61313;48.396;10.008;2022-09-03T15:33:46;27.83;;;4.20;;
8252;SDS011;61313;48.396;10.008;2022-09-03T15:36:40;30.40;;;3.90;;
8252;SDS011;61313;48.396;10.008;2022-09-03T15:39:23;11.30;;;2.60;;
8252;SDS011;61313;48.396;10.008;2022-09-03T15:41:56;7.90;;;2.23;;
8252;SDS011;61313;48.396;10.008;2022-09-03T15:44:40;9.53;;;2.57;;
8252;SDS011;61313;48.396;10.008;2022-09-03T15:47:12;46.10;;;6.63;;
8252;SDS011;61313;48.396;10.008;2022-09-03T15:50:06;6.00;;;2.17;;
8252;SDS011;61313;48.396;10.008;2022-09-03T15:52:55;8.77;;;1.70;;
8252;SDS011;61313;48.396;10.008;2022-09-03T15:55:49;9.50;;;1.90;;
8252;SDS011;61313;48.396;10.008;2022-09-03T15:58:41;9.53;;;2.50;;
8252;SDS011;61313;48.396;10.008;2022-09-03T16:01:29;13.23;;;1.97;;
8252;SDS011;61313;48.396;10.008;2022-09-03T16:06:54;21.50;;;3.77;;
8252;SDS011;61313;48.396;10.008;2022-09-03T16:12:40;18.10;;;3.70;;
8252;SDS011;61313;48.396;10.008;2022-09-03T16:15:39;3.83;;;1.90;;
8252;SDS011;61313;48.396;10.008;2022-09-03T16:18:24;6.80;;;1.90;;
8252;SDS011;61313;48.396;10.008;2022-09-03T16:21:08;6.73;;;2.30;;
8252;SDS011;61313;48.396;10.008;2022-09-03T16:23:42;4.30;;;2.10;;
8252;SDS011;61313;48.396;10.008;2022-09-03T16:26:20;5.27;;;2.40;;
8252;SDS011;61313;48.396;10.008;2022-09-03T16:29:07;6.23;;;1.97;;
8252;SDS011;61313;48.396;10.008;2022-09-03T16:34:34;21.40;;;3.33;;
8252;SDS011;61313;48.396;10.008;2022-09-03T16:39:55;3.93;;;3.20;;
8252;SDS011;61313;48.396;10.008;2022-09-03T17:11:26;12.07;;;3.70;;
8252;SDS011;61313;48.396;10.008;2022-09-03T17:16:34;9.97;;;2.77;;
8252;SDS011;61313;48.396;10.008;2022-09-03T17:24:35;11.80;;;2.87;;
8252;SDS011;61313;48.396;10.008;2022-09-03T17:30:26;6.43;;;2.80;;
8252;SDS011;61313;48.396;10.008;2022-09-03T17:49:43;25.60;;;4.20;;
8252;SDS011;61313;48.396;10.008;2022-09-03T17:57:55;44.13;;;6.67;;
8252;SDS011;61313;48.396;10.008;2022-09-03T18:01:10;32.33;;;5.27;;
8252;SDS011;61313;48.396;10.008;2022-09-03T18:03:38;37.60;;;7.20;;
8252;SDS011;61313;48.396;10.008;2022-09-03T18:09:20;31.03;;;6.63;;
8252;SDS011;61313;48.396;10.008;2022-09-03T18:15:08;11.77;;;3.23;;
8252;SDS011;61313;48.396;10.008;2022-09-03T18:17:42;11.73;;;4.10;;
8252;SDS011;61313;48.396;10.008;2022-09-03T18:20:15;6.50;;;3.73;;
8252;SDS011;61313;48.396;10.008;2022-09-03T18:26:12;4.70;;;2.60;;
8252;SDS011;61313;48.396;10.008;2022-09-03T18:29:04;6.77;;;3.47;;
8252;SDS011;61313;48.396;10.008;2022-09-03T18:31:54;3.20;;;2.90;;
8252;SDS011;61313;48.396;10.008;2022-09-03T18:34:38;5.67;;;5.17;;
8252;SDS011;61313;48.396;10.008;2022-09-03T18:37:24;7.63;;;6.93;;
8252;SDS011;61313;48.396;10.008;2022-09-03T18:40:14;5.43;;;4.80;;
8252;SDS011;61313;48.396;10.008;2022-09-03T18:46:00;6.67;;;4.80;;
8252;SDS011;61313;48.396;10.008;2022-09-03T18:49:42;6.30;;;4.40;;
8252;SDS011;61313;48.396;10.008;2022-09-03T18:52:17;6.27;;;4.83;;
8252;SDS011;61313;48.396;10.008;2022-09-03T19:01:20;9.00;;;6.10;;
8252;SDS011;61313;48.396;10.008;2022-09-03T19:10:41;4.83;;;3.67;;
8252;SDS011;61313;48.396;10.008;2022-09-03T19:13:35;7.30;;;4.17;;
8252;SDS011;61313;48.396;10.008;2022-09-03T19:22:37;10.53;;;5.20;;
8252;SDS011;61313;48.396;10.008;2022-09-03T19:25:23;7.73;;;4.30;;
8252;SDS011;61313;48.396;10.008;2022-09-03T19:28:13;8.40;;;4.80;;
8252;SDS011;61313;48.396;10.008;2022-09-03T19:51:49;6.70;;;6.00;;
8252;SDS011;61313;48.396;10.008;2022-09-03T19:54:45;10.07;;;6.10;;
8252;SDS011;61313;48.396;10.008;2022-09-03T19:57:35;7.20;;;6.50;;
8252;SDS011;61313;48.396;10.008;2022-09-03T20:00:21;7.27;;;6.50;;
8252;SDS011;61313;48.396;10.008;2022-09-03T20:03:05;7.87;;;6.00;;
8252;SDS011;61313;48.396;10.008;2022-09-03T20:05:50;10.30;;;6.93;;
8252;SDS011;61313;48.396;10.008;2022-09-03T20:08:35;9.90;;;6.17;;
8252;SDS011;61313;48.396;10.008;2022-09-03T20:11:20;10.00;;;6.43;;
8252;SDS011;61313;48.396;10.008;2022-09-03T20:13:48;8.93;;;6.67;;
8252;SDS011;61313;48.396;10.008;2022-09-03T20:27:20;4.80;;;4.30;;
8252;SDS011;61313;48.396;10.008;2022-09-03T20:30:00;75.90;;;11.57;;
8252;SDS011;61313;48.396;10.008;2022-09-03T20:32:46;53.43;;;9.40;;
8252;SDS011;61313;48.396;10.008;2022-09-03T20:36:05;9.77;;;5.47;;
8252;SDS011;61313;48.396;10.008;2022-09-03T20:43:58;9.33;;;4.93;;
8252;SDS011;61313;48.396;10.008;2022-09-03T20:55:31;10.83;;;4.87;;
8252;SDS011;61313;48.396;10.008;2022-09-03T20:58:26;7.43;;;5.27;;
8252;SDS011;61313;48.396;10.008;2022-09-03T21:02:22;7.57;;;4.60;;
8252;SDS011;61313;48.396;10.008;2022-09-03T21:07:19;9.93;;;6.50;;
8252;SDS011;61313;48.396;10.008;2022-09-03T21:12:41;6.17;;;5.57;;
8252;SDS011;61313;48.396;10.008;2022-09-03T21:23:39;6.70;;;4.40;;
8252;SDS011;61313;48.396;10.008;2022-09-03T21:26:30;7.73;;;5.20;;
8252;SDS011;61313;48.396;10.008;2022-09-03T21:29:08;7.70;;;5.60;;
8252;SDS011;61313;48.396;10.008;2022-09-03T21:34:32;7.40;;;6.27;;
8252;SDS011;61313;48.396;10.008;2022-09-03T21:37:05;8.20;;;5.87;;
8252;SDS011;61313;48.396;10.008;2022-09-03T21:39:56;6.60;;;5.40;;
8252;SDS011;61313;48.396;10.008;2022-09-03T21:45:16;6.57;;;5.90;;
8252;SDS011;61313;48.396;10.008;2022-09-03T21:48:02;7.37;;;6.67;;
8252;SDS011;61313;48.396;10.008;2022-09-03T21:50:56;7.10;;;6.37;;
8252;SDS011;61313;48.396;10.008;2022-09-03T21:53:26;6.83;;;5.50;;